Time;durP1;ratioP1;P1;durP2;ratioP2;P2;SDS_P1;SDS_P2;PMS_P1;PMS_P2;Temp;Humidity;BMP_temperature;BMP_pressure;BME280_temperature;BME280_humidity;BME280_pressure;Samples;Min_cycle;Max_cycle;Signal;HPM_P1;HPM_P2
2023/02/23 00:00:55;;;;;;;;;;;;;;;;;;4942230;29;19938;-76
2023/02/23 00:03:42;;;;;;;;;;;;;;;;;;4942466;29;19922;-75
2023/02/23 00:06:28;;;;;;;;;;;;;;;;;;4942690;29;19926;-76
2023/02/23 00:09:21;;;;;;;;;;;;;;;;;;4932915;29;20311;-76
2023/02/23 00:12:08;;;;;;;;;;;;;;;;;;4935929;29;19923;-76
2023/02/23 00:14:54;;;;;;;;;;;;;;;;;;4946806;29;19933;-76
2023/02/23 00:17:41;;;;;;;;;;;;;;;;;;4944136;29;19915;-75
2023/02/23 00:20:27;;;;;;;;;;;;;;;;;;4934152;29;20397;-75
2023/02/23 00:23:14;;;;;;;;;;;;;;;;;;4939272;29;19925;-76
2023/02/23 00:26:03;;;;;;;;;;;;;;;;;;4934953;29;19926;-76
2023/02/23 00:28:50;;;;;;;;;;;;;;;;;;4942967;29;19928;-76
2023/02/23 00:31:37;;;;;;;;;;;;;;;;;;4936520;29;19925;-77
2023/02/23 00:34:23;;;;;;;;;;;;;;;;;;4935834;29;19923;-76
2023/02/23 00:37:11;;;;;;;;;;;;;;;;;;4936823;29;19915;-77
2023/02/23 00:39:57;;;;;;;;;;;;;;;;;;4944436;29;19923;-76
2023/02/23 00:42:44;;;;;;;;;;;;;;;;;;4947235;29;20302;-76
2023/02/23 00:45:30;;;;;;;;;;;;;;;;;;4927527;29;19926;-76
2023/02/23 00:48:17;;;;;;;;;;;;;;;;;;4927370;29;19920;-76
2023/02/23 00:51:03;;;;;;;;;;;;;;;;;;4930166;29;20302;-77
2023/02/23 00:53:50;;;;;;;;;;;;;;;;;;4942844;29;19924;-77
2023/02/23 00:56:36;;;;;;;;;;;;;;;;;;4937107;29;19926;-76
2023/02/23 00:59:23;;;;;;;;;;;;;;;;;;4934397;29;20670;-77
2023/02/23 01:02:09;;;;;;;;;;;;;;;;;;4938962;29;19926;-77
2023/02/23 01:04:56;;;;;;;;;;;;;;;;;;4940841;29;19929;-77
2023/02/23 01:07:45;;;;;;;;;;;;;;;;;;4939569;29;19954;-76
2023/02/23 01:10:32;;;;;;;;;;;;;;;;;;4938563;29;20303;-76
2023/02/23 01:13:18;;;;;;;;;;;;;;;;;;4943283;29;19919;-77
2023/02/23 01:16:05;;;;;;;;;;;;;;;;;;4927092;29;19928;-77
2023/02/23 01:18:52;;;;;;;;;;;;;;;;;;4942531;29;20396;-79
2023/02/23 01:21:39;;;;;;;;;;;;;;;;;;4942493;29;20393;-79
2023/02/23 01:24:26;;;;;;;;;;;;;;;;;;4933966;29;19945;-79
2023/02/23 01:27:12;;;;;;;;;;;;;;;;;;4939028;29;19918;-78
2023/02/23 01:29:59;;;;;;;;;;;;;;;;;;4939165;29;19919;-78
2023/02/23 01:32:45;;;;;;;;;;;;;;;;;;4937339;28;19941;-78
2023/02/23 01:35:32;;;;;;;;;;;;;;;;;;4941946;29;19926;-79
2023/02/23 01:38:18;;;;;;;;;;;;;;;;;;4939090;29;19942;-79
2023/02/23 01:41:06;;;;;;;;;;;;;;;;;;4935498;29;19934;-80
2023/02/23 01:43:52;;;;;;;;;;;;;;;;;;4941228;29;19918;-78
2023/02/23 01:46:38;;;;;;;;;;;;;;;;;;4929702;29;19919;-79
2023/02/23 01:49:25;;;;;;;;;;;;;;;;;;4936656;29;19930;-78
2023/02/23 01:52:11;;;;;;;;;;;;;;;;;;4940389;29;20522;-78
2023/02/23 01:54:58;;;;;;;;;;;;;;;;;;4938703;29;19923;-79
2023/02/23 01:57:45;;;;;;;;;;;;;;;;;;4941162;29;19929;-79
2023/02/23 02:00:35;;;;;;;;;;;;;;;;;;4934685;29;19923;-79
2023/02/23 02:03:21;;;;;;;;;;;;;;;;;;4941242;29;19938;-79
2023/02/23 02:06:08;;;;;;;;;;;;;;;;;;4940904;29;19933;-80
2023/02/23 02:08:55;;;;;;;;;;;;;;;;;;4944471;29;19930;-79
2023/02/23 02:11:43;;;;;;;;;;;;;;;;;;4943562;29;19918;-79
2023/02/23 02:14:30;;;;;;;;;;;;;;;;;;4938496;29;19922;-78
2023/02/23 02:17:17;;;;;;;;;;;;;;;;;;4936848;28;19919;-79
2023/02/23 02:20:11;;;;;;;;;;;;;;;;;;4942579;29;19925;-79
2023/02/23 02:22:58;;;;;;;;;;;;;;;;;;4944843;29;19922;-78
2023/02/23 02:25:44;;;;;;;;;;;;;;;;;;4941796;29;19923;-79
2023/02/23 02:28:31;;;;;;;;;;;;;;;;;;4943367;29;19922;-78
2023/02/23 02:31:19;;;;;;;;;;;;;;;;;;4943636;29;20547;-80
2023/02/23 02:34:06;;;;;;;;;;;;;;;;;;4932531;29;19926;-78
2023/02/23 02:36:52;;;;;;;;;;;;;;;;;;4936063;29;19922;-78
2023/02/23 02:39:39;;;;;;;;;;;;;;;;;;4946783;28;19930;-79
2023/02/23 02:42:25;;;;;;;;;;;;;;;;;;4938023;29;19930;-79
2023/02/23 02:45:12;;;;;;;;;;;;;;;;;;4942399;28;19921;-79
2023/02/23 02:47:58;;;;;;;;;;;;;;;;;;4934055;28;19944;-79
2023/02/23 02:50:46;;;;;;;;;;;;;;;;;;4933954;29;20593;-78
2023/02/23 02:53:32;;;;;;;;;;;;;;;;;;4944890;28;19922;-78
2023/02/23 02:56:19;;;;;;;;;;;;;;;;;;4945500;28;20409;-77
2023/02/23 04:18:43;;;;;;;;;;;;;;;;;;4932926;29;19930;-79
2023/02/23 04:21:29;;;;;;;;;;;;;;;;;;4933069;29;19926;-79
2023/02/23 04:24:16;;;;;;;;;;;;;;;;;;4942018;29;19925;-79
2023/02/23 04:27:03;;;;;;;;;;;;;;;;;;4943814;29;20302;-79
2023/02/23 04:29:50;;;;;;;;;;;;;;;;;;4943814;28;19930;-79
2023/02/23 04:32:36;;;;;;;;;;;;;;;;;;4938392;29;19922;-78
2023/02/23 04:35:23;;;;;;;;;;;;;;;;;;4940482;29;19926;-79
2023/02/23 04:38:10;;;;;;;;;;;;;;;;;;4943941;29;19922;-77
2023/02/23 04:40:56;;;;;;;;;;;;;;;;;;4942361;28;19927;-78
2023/02/23 04:43:43;;;;;;;;;;;;;;;;;;4944438;29;19925;-79
2023/02/23 04:46:29;;;;;;;;;;;;;;;;;;4936533;29;20412;-79
2023/02/23 04:49:15;;;;;;;;;;;;;;;;;;4941918;29;19927;-79
2023/02/23 04:52:02;;;;;;;;;;;;;;;;;;4927551;29;19919;-79
2023/02/23 04:54:48;;;;;;;;;;;;;;;;;;4933818;29;20390;-80
2023/02/23 04:57:35;;;;;;;;;;;;;;;;;;4940379;29;19927;-78
2023/02/23 05:00:21;;;;;;;;;;;;;;;;;;4940133;29;19918;-78
2023/02/23 05:03:08;;;;;;;;;;;;;;;;;;4941838;29;19934;-78
2023/02/23 05:05:54;;;;;;;;;;;;;;;;;;4941134;28;19933;-79
2023/02/23 05:08:41;;;;;;;;;;;;;;;;;;4937792;28;19931;-78
2023/02/23 05:11:27;;;;;;;;;;;;;;;;;;4939067;29;20627;-78
2023/02/23 05:14:14;;;;;;;;;;;;;;;;;;4941596;29;19934;-77
2023/02/23 05:17:00;;;;;;;;;;;;;;;;;;4939876;29;19918;-78
2023/02/23 05:19:47;;;;;;;;;;;;;;;;;;4938931;29;20394;-78
2023/02/23 05:22:33;;;;;;;;;;;;;;;;;;4945484;29;19933;-78
2023/02/23 05:25:20;;;;;;;;;;;;;;;;;;4943415;28;19922;-77
2023/02/23 05:28:06;;;;;;;;;;;;;;;;;;4944087;29;19930;-78
2023/02/23 05:30:53;;;;;;;;;;;;;;;;;;4937534;29;19935;-78
2023/02/23 05:33:41;;;;;;;;;;;;;;;;;;4940850;28;19922;-78
2023/02/23 05:36:27;;;;;;;;;;;;;;;;;;4935656;29;19918;-78
2023/02/23 05:39:14;;;;;;;;;;;;;;;;;;4936838;28;19949;-78
2023/02/23 05:42:00;;;;;;;;;;;;;;;;;;4944676;29;19948;-78
2023/02/23 05:44:47;;;;;;;;;;;;;;;;;;4943195;28;19918;-79
2023/02/23 05:47:37;;;;;;;;;;;;;;;;;;4946036;28;20670;-79
2023/02/23 05:50:23;;;;;;;;;;;;;;;;;;4943711;29;19923;-79
2023/02/23 05:53:10;;;;;;;;;;;;;;;;;;4940366;28;19935;-80
2023/02/23 05:55:57;;;;;;;;;;;;;;;;;;4944921;28;20409;-79
2023/02/23 05:58:44;;;;;;;;;;;;;;;;;;4943709;29;19930;-80
2023/02/23 06:01:30;;;;;;;;;;;;;;;;;;4939372;29;19932;-80
2023/02/23 06:04:18;;;;;;;;;;;;;;;;;;4940838;29;19918;-80
2023/02/23 06:07:04;;;;;;;;;;;;;;;;;;4933629;28;19922;-79
2023/02/23 06:09:50;;;;;;;;;;;;;;;;;;4941442;28;19930;-79
2023/02/23 06:12:37;;;;;;;;;;;;;;;;;;4946034;28;19949;-79
2023/02/23 06:15:23;;;;;;;;;;;;;;;;;;4939074;28;19941;-79
2023/02/23 06:18:10;;;;;;;;;;;;;;;;;;4946103;29;19923;-79
2023/02/23 06:20:57;;;;;;;;;;;;;;;;;;4928587;28;19926;-79
2023/02/23 06:23:44;;;;;;;;;;;;;;;;;;4926811;28;19929;-79
2023/02/23 06:26:32;;;;;;;;;;;;;;;;;;4945831;28;20303;-79
2023/02/23 06:29:18;;;;;;;;;;;;;;;;;;4921335;29;19919;-79
2023/02/23 06:32:05;;;;;;;;;;;;;;;;;;4927606;29;19915;-78
2023/02/23 06:34:51;;;;;;;;;;;;;;;;;;4935223;28;19919;-79
2023/02/23 06:37:38;;;;;;;;;;;;;;;;;;4940073;28;19942;-79
2023/02/23 06:40:24;;;;;;;;;;;;;;;;;;4937754;28;19922;-79
2023/02/23 06:43:11;;;;;;;;;;;;;;;;;;4928710;28;19930;-79
2023/02/23 06:45:57;;;;;;;;;;;;;;;;;;4926815;28;19919;-79
2023/02/23 06:48:43;;;;;;;;;;;;;;;;;;4942722;28;19925;-78
2023/02/23 06:51:30;;;;;;;;;;;;;;;;;;4925030;28;19929;-79
2023/02/23 06:54:17;;;;;;;;;;;;;;;;;;4926317;29;19926;-79
2023/02/23 06:57:04;;;;;;;;;;;;;;;;;;4928126;28;19919;-79
2023/02/23 06:59:50;;;;;;;;;;;;;;;;;;4935557;28;19945;-79
2023/02/23 07:02:37;;;;;;;;;;;;;;;;;;4936085;28;19933;-79
2023/02/23 07:05:23;;;;;;;;;;;;;;;;;;4939815;28;19923;-79
2023/02/23 07:08:10;;;;;;;;;;;;;;;;;;4913581;29;19931;-78
2023/02/23 07:10:57;;;;;;;;;;;;;;;;;;4938511;29;19933;-77
2023/02/23 07:13:44;;;;;;;;;;;;;;;;;;4938574;28;19926;-77
2023/02/23 07:16:30;;;;;;;;;;;;;;;;;;4937534;28;19951;-77
2023/02/23 07:19:17;;;;;;;;;;;;;;;;;;4937679;28;19926;-76
2023/02/23 07:22:04;;;;;;;;;;;;;;;;;;4940715;28;20311;-80
2023/02/23 07:24:51;;;;;;;;;;;;;;;;;;4936534;28;19922;-80
2023/02/23 07:27:37;;;;;;;;;;;;;;;;;;4942237;28;19927;-80
2023/02/23 07:30:24;;;;;;;;;;;;;;;;;;4932914;29;19919;-80
2023/02/23 07:33:10;;;;;;;;;;;;;;;;;;4939901;28;19922;-80
2023/02/23 07:35:57;;;;;;;;;;;;;;;;;;4936747;29;19991;-81
2023/02/23 07:38:43;;;;;;;;;;;;;;;;;;4932431;28;19919;-81
2023/02/23 07:41:30;;;;;;;;;;;;;;;;;;4929324;28;19946;-81
2023/02/23 07:44:16;;;;;;;;;;;;;;;;;;4936555;28;19981;-80
2023/02/23 07:47:03;;;;;;;;;;;;;;;;;;4934416;29;20316;-80
2023/02/23 07:49:49;;;;;;;;;;;;;;;;;;4932838;28;19929;-81
2023/02/23 07:52:36;;;;;;;;;;;;;;;;;;4928215;28;19927;-80
2023/02/23 07:55:22;;;;;;;;;;;;;;;;;;4940981;28;20496;-81
2023/02/23 07:58:09;;;;;;;;;;;;;;;;;;4940252;29;19926;-81
2023/02/23 08:00:55;;;;;;;;;;;;;;;;;;4941066;29;20301;-78
2023/02/23 08:03:48;;;;;;;;;;;;;;;;;;4941687;28;19929;-80
2023/02/23 08:06:34;;;;;;;;;;;;;;;;;;4946481;29;20302;-79
2023/02/23 08:09:21;;;;;;;;;;;;;;;;;;4941509;28;19938;-79
2023/02/23 08:12:09;;;;;;;;;;;;;;;;;;4939098;28;19925;-81
2023/02/23 08:14:55;;;;;;;;;;;;;;;;;;4940997;29;20334;-79
2023/02/23 08:17:42;;;;;;;;;;;;;;;;;;4920576;29;19930;-80
2023/02/23 08:20:37;;;;;;;;;;;;;;;;;;4938621;28;19918;-80
2023/02/23 08:23:24;;;;;;;;;;;;;;;;;;4931116;29;19930;-80
2023/02/23 08:26:10;;;;;;;;;;;;;;;;;;4938114;28;20287;-79
2023/02/23 08:28:57;;;;;;;;;;;;;;;;;;4947823;28;19918;-79
2023/02/23 08:31:43;;;;;;;;;;;;;;;;;;4932323;29;19926;-79
2023/02/23 08:34:30;;;;;;;;;;;;;;;;;;4925131;29;19919;-79
2023/02/23 08:37:16;;;;;;;;;;;;;;;;;;4937690;29;20484;-80
2023/02/23 08:40:03;;;;;;;;;;;;;;;;;;4942825;29;19930;-79
2023/02/23 08:42:52;;;;;;;;;;;;;;;;;;4945842;29;19926;-80
2023/02/23 08:45:39;;;;;;;;;;;;;;;;;;4927562;28;19919;-79
2023/02/23 08:48:25;;;;;;;;;;;;;;;;;;4928963;29;20299;-80
2023/02/23 08:51:13;;;;;;;;;;;;;;;;;;4938655;28;19927;-81
2023/02/23 08:53:59;;;;;;;;;;;;;;;;;;4923618;29;19999;-80
2023/02/23 08:56:46;;;;;;;;;;;;;;;;;;4943551;28;19925;-81
2023/02/23 08:59:32;;;;;;;;;;;;;;;;;;4941781;28;19923;-80
2023/02/23 09:02:20;;;;;;;;;;;;;;;;;;4932953;28;19933;-80
2023/02/23 09:05:06;;;;;;;;;;;;;;;;;;4932822;28;19918;-80
2023/02/23 09:07:52;;;;;;;;;;;;;;;;;;4939497;28;19937;-80
2023/02/23 09:10:39;;;;;;;;;;;;;;;;;;4937547;28;20291;-80
2023/02/23 09:13:26;;;;;;;;;;;;;;;;;;4937196;28;19925;-78
2023/02/23 09:16:12;;;;;;;;;;;;;;;;;;4938634;29;19918;-79
2023/02/23 09:19:00;;;;;;;;;;;;;;;;;;4939481;29;19922;-80
2023/02/23 09:21:46;;;;;;;;;;;;;;;;;;4938202;29;19930;-79
2023/02/23 09:24:33;;;;;;;;;;;;;;;;;;4935940;28;19925;-77
2023/02/23 09:27:20;;;;;;;;;;;;;;;;;;4934263;28;19930;-79
2023/02/23 09:30:06;;;;;;;;;;;;;;;;;;4930535;28;19923;-79
2023/02/23 09:32:53;;;;;;;;;;;;;;;;;;4934060;28;19925;-79
2023/02/23 09:35:40;;;;;;;;;;;;;;;;;;4932503;29;19919;-79
2023/02/23 09:38:26;;;;;;;;;;;;;;;;;;4936064;28;19926;-80
2023/02/23 09:41:13;;;;;;;;;;;;;;;;;;4934756;29;20631;-79
2023/02/23 09:43:59;;;;;;;;;;;;;;;;;;4937552;28;19918;-82
2023/02/23 09:46:46;;;;;;;;;;;;;;;;;;4933432;28;19950;-81
2023/02/23 09:49:33;;;;;;;;;;;;;;;;;;4918810;29;19922;-81
2023/02/23 09:52:20;;;;;;;;;;;;;;;;;;4926806;29;19920;-81
2023/02/23 09:55:06;;;;;;;;;;;;;;;;;;4934740;28;19923;-82
2023/02/23 09:57:53;;;;;;;;;;;;;;;;;;4933040;29;19926;-81
2023/02/23 10:00:39;;;;;;;;;;;;;;;;;;4935513;28;19925;-82
2023/02/23 10:03:26;;;;;;;;;;;;;;;;;;4929749;28;19941;-81
2023/02/23 10:06:13;;;;;;;;;;;;;;;;;;4935429;28;19927;-81
2023/02/23 10:09:00;;;;;;;;;;;;;;;;;;4931631;29;19930;-80
2023/02/23 10:11:46;;;;;;;;;;;;;;;;;;4924485;29;19929;-80
2023/02/23 10:14:33;;;;;;;;;;;;;;;;;;4934222;29;19914;-81
2023/02/23 10:17:20;;;;;;;;;;;;;;;;;;4935884;28;19919;-82
2023/02/23 10:20:06;;;;;;;;;;;;;;;;;;4935184;28;19929;-83
2023/02/23 10:22:53;;;;;;;;;;;;;;;;;;4939231;28;19926;-82
2023/02/23 10:25:39;;;;;;;;;;;;;;;;;;4936348;28;19926;-83
2023/02/23 10:28:26;;;;;;;;;;;;;;;;;;4935868;28;19926;-81
2023/02/23 10:31:12;;;;;;;;;;;;;;;;;;4930057;28;19925;-84
2023/02/23 10:33:59;;;;;;;;;;;;;;;;;;4935521;28;19919;-83
2023/02/23 10:36:45;;;;;;;;;;;;;;;;;;4938986;29;19925;-81
2023/02/23 10:39:32;;;;;;;;;;;;;;;;;;4946492;28;19922;-89
2023/02/23 10:42:18;;;;;;;;;;;;;;;;;;4948647;28;19933;-83
2023/02/23 10:45:05;;;;;;;;;;;;;;;;;;4948121;29;19919;-83
2023/02/23 10:47:51;;;;;;;;;;;;;;;;;;4916948;29;19930;-83
2023/02/23 10:50:38;;;;;;;;;;;;;;;;;;4944613;29;19919;-83
2023/02/23 10:53:25;;;;;;;;;;;;;;;;;;4941229;28;20298;-83
2023/02/23 10:56:14;;;;;;;;;;;;;;;;;;4940036;29;20523;-83
2023/02/23 10:59:01;;;;;;;;;;;;;;;;;;4944313;29;19918;-83
2023/02/23 11:01:47;;;;;;;;;;;;;;;;;;4936836;28;19938;-84
2023/02/23 11:04:34;;;;;;;;;;;;;;;;;;4938581;29;19930;-84
2023/02/23 11:07:20;;;;;;;;;;;;;;;;;;4946661;28;20676;-84
2023/02/23 11:10:07;;;;;;;;;;;;;;;;;;4930669;29;19930;-84
2023/02/23 11:12:53;;;;;;;;;;;;;;;;;;4941485;29;19942;-83
2023/02/23 11:15:42;;;;;;;;;;;;;;;;;;4940549;29;19929;-83
2023/02/23 11:18:29;;;;;;;;;;;;;;;;;;4928997;29;19992;-83
2023/02/23 11:21:15;;;;;;;;;;;;;;;;;;4940585;29;19919;-83
2023/02/23 11:24:02;;;;;;;;;;;;;;;;;;4944844;29;19918;-83
2023/02/23 11:26:48;;;;;;;;;;;;;;;;;;4927293;29;20893;-82
2023/02/23 11:29:35;;;;;;;;;;;;;;;;;;4940410;29;20580;-84
2023/02/23 11:32:21;;;;;;;;;;;;;;;;;;4944859;29;19918;-84
2023/02/23 11:35:08;;;;;;;;;;;;;;;;;;4943040;29;19923;-84
2023/02/23 11:37:54;;;;;;;;;;;;;;;;;;4925693;29;20272;-83
2023/02/23 11:40:41;;;;;;;;;;;;;;;;;;4944955;29;19914;-83
2023/02/23 11:43:27;;;;;;;;;;;;;;;;;;4944234;29;19936;-82
2023/02/23 11:46:14;;;;;;;;;;;;;;;;;;4946306;29;19919;-84
2023/02/23 11:49:00;;;;;;;;;;;;;;;;;;4929061;28;19918;-83
2023/02/23 11:51:48;;;;;;;;;;;;;;;;;;4943863;29;19946;-83
2023/02/23 11:54:35;;;;;;;;;;;;;;;;;;4945987;29;19941;-83
2023/02/23 11:57:21;;;;;;;;;;;;;;;;;;4937366;29;19922;-82
2023/02/23 12:00:08;;;;;;;;;;;;;;;;;;4928981;29;19929;-82
2023/02/23 12:02:54;;;;;;;;;;;;;;;;;;4942004;29;19927;-82
2023/02/23 12:05:40;;;;;;;;;;;;;;;;;;4946850;29;19918;-82
2023/02/23 12:08:29;;;;;;;;;;;;;;;;;;4943834;29;19934;-83
2023/02/23 12:11:15;;;;;;;;;;;;;;;;;;4931001;29;20014;-84
2023/02/23 12:14:02;;;;;;;;;;;;;;;;;;4923061;29;19929;-86
2023/02/23 12:16:49;;;;;;;;;;;;;;;;;;4945301;29;19919;-80
2023/02/23 12:19:35;;;;;;;;;;;;;;;;;;4935291;28;19915;-86
2023/02/23 12:22:22;;;;;;;;;;;;;;;;;;4933535;28;19930;-85
2023/02/23 12:25:09;;;;;;;;;;;;;;;;;;4936085;28;20377;-86
2023/02/23 12:27:56;;;;;;;;;;;;;;;;;;4939272;28;20406;-87
2023/02/23 12:30:42;;;;;;;;;;;;;;;;;;4943176;28;19926;-86
2023/02/23 12:33:32;;;;;;;;;;;;;;;;;;4942779;28;19918;-85
2023/02/23 12:36:19;;;;;;;;;;;;;;;;;;4937706;28;19945;-85
2023/02/23 12:39:05;;;;;;;;;;;;;;;;;;4935688;28;20000;-87
2023/02/23 12:41:52;;;;;;;;;;;;;;;;;;4926752;29;19926;-85
2023/02/23 12:44:38;;;;;;;;;;;;;;;;;;4941855;29;19923;-86
2023/02/23 12:47:25;;;;;;;;;;;;;;;;;;4937077;28;19925;-85
2023/02/23 12:50:12;;;;;;;;;;;;;;;;;;4934861;28;19925;-85
2023/02/23 12:53:00;;;;;;;;;;;;;;;;;;4934897;28;19929;-84
2023/02/23 12:55:46;;;;;;;;;;;;;;;;;;4933374;28;20561;-84
2023/02/23 12:58:33;;;;;;;;;;;;;;;;;;4935220;28;20678;-83
2023/02/23 13:01:20;;;;;;;;;;;;;;;;;;4916142;28;19918;-84
2023/02/23 13:04:07;;;;;;;;;;;;;;;;;;4928283;29;19923;-83
2023/02/23 13:06:53;;;;;;;;;;;;;;;;;;4937665;28;19930;-84
2023/02/23 13:09:40;;;;;;;;;;;;;;;;;;4935223;28;19919;-84
2023/02/23 13:12:26;;;;;;;;;;;;;;;;;;4934897;28;19923;-84
2023/02/23 13:15:14;;;;;;;;;;;;;;;;;;4937658;28;20370;-85
2023/02/23 13:18:01;;;;;;;;;;;;;;;;;;4938718;28;19918;-84
2023/02/23 13:20:47;;;;;;;;;;;;;;;;;;4936936;28;19923;-84
2023/02/23 13:23:34;;;;;;;;;;;;;;;;;;4932148;28;19926;-85
2023/02/23 13:26:23;;;;;;;;;;;;;;;;;;4939437;29;19926;-85
2023/02/23 13:29:10;;;;;;;;;;;;;;;;;;4929610;29;19926;-76
2023/02/23 13:31:56;;;;;;;;;;;;;;;;;;4939507;29;19938;-76
2023/02/23 13:34:42;;;;;;;;;;;;;;;;;;4934654;29;19937;-76
2023/02/23 13:37:29;;;;;;;;;;;;;;;;;;4940367;29;19915;-76
2023/02/23 13:40:16;;;;;;;;;;;;;;;;;;4936859;29;20323;-75
2023/02/23 13:43:05;;;;;;;;;;;;;;;;;;4940059;29;19930;-75
2023/02/23 13:45:52;;;;;;;;;;;;;;;;;;4928285;28;19930;-74
2023/02/23 13:48:40;;;;;;;;;;;;;;;;;;4926542;29;20282;-76
2023/02/23 13:51:28;;;;;;;;;;;;;;;;;;4935103;29;20306;-76
2023/02/23 13:54:17;;;;;;;;;;;;;;;;;;4939724;29;19918;-75
2023/02/23 13:57:04;;;;;;;;;;;;;;;;;;4935426;29;19922;-77
2023/02/23 13:59:51;;;;;;;;;;;;;;;;;;4932927;28;19922;-77
2023/02/23 14:02:37;;;;;;;;;;;;;;;;;;4935137;28;19934;-77
2023/02/23 14:05:24;;;;;;;;;;;;;;;;;;4933943;28;20263;-77
2023/02/23 14:08:10;;;;;;;;;;;;;;;;;;4937786;29;19926;-76
2023/02/23 14:10:57;;;;;;;;;;;;;;;;;;4937662;29;20249;-77
2023/02/23 14:13:43;;;;;;;;;;;;;;;;;;4937376;28;19926;-76
2023/02/23 14:16:32;;;;;;;;;;;;;;;;;;4948119;28;24683;-76
2023/02/23 14:19:19;;;;;;;;;;;;;;;;;;4944579;28;19919;-77
2023/02/23 14:22:08;;;;;;;;;;;;;;;;;;4941666;28;19927;-76
2023/02/23 14:24:55;;;;;;;;;;;;;;;;;;4948526;28;19918;-77
2023/02/23 14:27:41;;;;;;;;;;;;;;;;;;4949295;28;20414;-77
2023/02/23 14:30:28;;;;;;;;;;;;;;;;;;4934468;29;19919;-76
2023/02/23 14:33:14;;;;;;;;;;;;;;;;;;4939895;28;19926;-76
2023/02/23 14:36:01;;;;;;;;;;;;;;;;;;4943763;28;19919;-76
2023/02/23 14:38:47;;;;;;;;;;;;;;;;;;4933193;28;19926;-77
2023/02/23 14:41:34;;;;;;;;;;;;;;;;;;4940591;28;19934;-77
2023/02/23 14:44:20;;;;;;;;;;;;;;;;;;4931866;28;19922;-81
2023/02/23 14:47:07;;;;;;;;;;;;;;;;;;4938998;29;19925;-79
2023/02/23 14:49:53;;;;;;;;;;;;;;;;;;4943853;28;19935;-77
2023/02/23 14:52:40;;;;;;;;;;;;;;;;;;4950492;28;19926;-78
2023/02/23 14:55:26;;;;;;;;;;;;;;;;;;4945302;28;20338;-78
2023/02/23 14:58:13;;;;;;;;;;;;;;;;;;4940506;28;20390;-78
2023/02/23 15:01:00;;;;;;;;;;;;;;;;;;4944086;28;19927;-78
2023/02/23 15:03:46;;;;;;;;;;;;;;;;;;4948180;28;19933;-78
2023/02/23 15:06:33;;;;;;;;;;;;;;;;;;4944183;28;19922;-78
2023/02/23 15:09:19;;;;;;;;;;;;;;;;;;4948928;28;19930;-78
2023/02/23 15:12:06;;;;;;;;;;;;;;;;;;4945790;28;19918;-79
2023/02/23 15:14:52;;;;;;;;;;;;;;;;;;4940155;28;20413;-77
2023/02/23 15:17:39;;;;;;;;;;;;;;;;;;4946029;28;19927;-75
2023/02/23 15:20:27;;;;;;;;;;;;;;;;;;4945289;28;19941;-74
2023/02/23 15:23:14;;;;;;;;;;;;;;;;;;4942043;28;20402;-75
2023/02/23 15:26:00;;;;;;;;;;;;;;;;;;4937899;28;19922;-75
2023/02/23 15:28:47;;;;;;;;;;;;;;;;;;4928461;28;19926;-74
2023/02/23 15:31:33;;;;;;;;;;;;;;;;;;4935147;29;19965;-74
2023/02/23 15:34:20;;;;;;;;;;;;;;;;;;4936579;28;19926;-75
2023/02/23 15:37:06;;;;;;;;;;;;;;;;;;4930798;29;19919;-77
2023/02/23 15:39:53;;;;;;;;;;;;;;;;;;4939946;28;20018;-76
2023/02/23 15:42:39;;;;;;;;;;;;;;;;;;4944399;28;19950;-74
2023/02/23 15:45:27;;;;;;;;;;;;;;;;;;4939201;28;19919;-74
2023/02/23 15:48:17;;;;;;;;;;;;;;;;;;4940328;28;20480;-74
2023/02/23 15:51:05;;;;;;;;;;;;;;;;;;4935184;28;19929;-73
2023/02/23 15:53:52;;;;;;;;;;;;;;;;;;4935841;28;19922;-73
2023/02/23 15:56:38;;;;;;;;;;;;;;;;;;4935914;28;19922;-73
2023/02/23 15:59:25;;;;;;;;;;;;;;;;;;4934495;29;19922;-73
2023/02/23 16:02:13;;;;;;;;;;;;;;;;;;4933596;28;20383;-73
2023/02/23 16:04:59;;;;;;;;;;;;;;;;;;4929090;28;19930;-74
2023/02/23 16:07:46;;;;;;;;;;;;;;;;;;4936458;28;19966;-73
2023/02/23 16:10:32;;;;;;;;;;;;;;;;;;4938526;28;19929;-75
2023/02/23 16:13:19;;;;;;;;;;;;;;;;;;4936384;28;19923;-75
2023/02/23 16:16:10;;;;;;;;;;;;;;;;;;4924987;28;19941;-74
2023/02/23 16:19:00;;;;;;;;;;;;;;;;;;4936394;28;19938;-75
2023/02/23 16:21:48;;;;;;;;;;;;;;;;;;4935516;28;19922;-74
2023/02/23 16:24:34;;;;;;;;;;;;;;;;;;4926861;28;20286;-75
2023/02/23 16:27:21;;;;;;;;;;;;;;;;;;4936506;28;19922;-75
2023/02/23 16:30:07;;;;;;;;;;;;;;;;;;4939678;28;19923;-75
2023/02/23 16:32:54;;;;;;;;;;;;;;;;;;4937745;28;19922;-73
2023/02/23 16:35:40;;;;;;;;;;;;;;;;;;4933664;29;19914;-76
2023/02/23 16:38:27;;;;;;;;;;;;;;;;;;4936781;28;19929;-75
2023/02/23 16:41:14;;;;;;;;;;;;;;;;;;4930611;28;19926;-75
2023/02/23 16:44:01;;;;;;;;;;;;;;;;;;4931616;28;20383;-76
2023/02/23 16:46:47;;;;;;;;;;;;;;;;;;4932271;28;20283;-75
2023/02/23 16:49:34;;;;;;;;;;;;;;;;;;4931911;28;19923;-75
2023/02/23 16:52:21;;;;;;;;;;;;;;;;;;4940925;28;19925;-75
2023/02/23 16:55:08;;;;;;;;;;;;;;;;;;4929769;28;20278;-76
2023/02/23 16:57:54;;;;;;;;;;;;;;;;;;4941897;28;19934;-75
2023/02/23 17:00:41;;;;;;;;;;;;;;;;;;4936582;28;19918;-75
2023/02/23 17:03:29;;;;;;;;;;;;;;;;;;4938240;28;19953;-75
2023/02/23 17:06:15;;;;;;;;;;;;;;;;;;4943069;28;19919;-75
2023/02/23 17:09:02;;;;;;;;;;;;;;;;;;4941357;28;19938;-75
2023/02/23 17:11:48;;;;;;;;;;;;;;;;;;4941545;28;19923;-76
2023/02/23 17:14:35;;;;;;;;;;;;;;;;;;4941711;28;19930;-75
2023/02/23 17:17:21;;;;;;;;;;;;;;;;;;4924098;28;20409;-75
2023/02/23 17:20:14;;;;;;;;;;;;;;;;;;4940001;29;19925;-75
2023/02/23 17:23:00;;;;;;;;;;;;;;;;;;4943192;28;19922;-75
2023/02/23 17:25:47;;;;;;;;;;;;;;;;;;4933108;28;19915;-76
2023/02/23 17:28:33;;;;;;;;;;;;;;;;;;4941761;28;19948;-76
2023/02/23 17:31:20;;;;;;;;;;;;;;;;;;4931575;29;19953;-76
2023/02/23 17:34:06;;;;;;;;;;;;;;;;;;4932293;28;20302;-75
2023/02/23 17:36:53;;;;;;;;;;;;;;;;;;4928309;28;19926;-75
2023/02/23 17:39:40;;;;;;;;;;;;;;;;;;4937589;28;19933;-76
2023/02/23 17:42:26;;;;;;;;;;;;;;;;;;4944815;28;19923;-76
2023/02/23 17:45:13;;;;;;;;;;;;;;;;;;4945025;28;19923;-75
2023/02/23 17:48:00;;;;;;;;;;;;;;;;;;4931194;28;20382;-78
2023/02/23 17:50:46;;;;;;;;;;;;;;;;;;4931626;28;19919;-76
2023/02/23 17:53:33;;;;;;;;;;;;;;;;;;4933249;28;19936;-76
2023/02/23 17:56:19;;;;;;;;;;;;;;;;;;4926683;29;19925;-76
2023/02/23 17:59:06;;;;;;;;;;;;;;;;;;4940736;28;19919;-77
2023/02/23 18:01:52;;;;;;;;;;;;;;;;;;4941541;28;20400;-77
2023/02/23 18:04:40;;;;;;;;;;;;;;;;;;4928039;29;20032;-76
2023/02/23 18:07:26;;;;;;;;;;;;;;;;;;4937700;28;20319;-76
2023/02/23 18:10:15;;;;;;;;;;;;;;;;;;4936389;28;19919;-77
2023/02/23 18:13:01;;;;;;;;;;;;;;;;;;4928556;28;19926;-76
2023/02/23 18:15:48;;;;;;;;;;;;;;;;;;4940168;28;20518;-77
2023/02/23 18:18:34;;;;;;;;;;;;;;;;;;4925535;29;19929;-75
2023/02/23 18:21:21;;;;;;;;;;;;;;;;;;4930566;28;19925;-75
2023/02/23 18:24:08;;;;;;;;;;;;;;;;;;4930023;28;20037;-75
2023/02/23 18:26:59;;;;;;;;;;;;;;;;;;4931559;28;19922;-77
2023/02/23 18:29:45;;;;;;;;;;;;;;;;;;4933065;28;20390;-77
2023/02/23 18:32:32;;;;;;;;;;;;;;;;;;4935200;28;19923;-77
2023/02/23 18:35:18;;;;;;;;;;;;;;;;;;4938505;28;19928;-76
2023/02/23 18:38:05;;;;;;;;;;;;;;;;;;4935804;28;19914;-79
2023/02/23 18:40:51;;;;;;;;;;;;;;;;;;4910260;28;20296;-77
2023/02/23 18:43:39;;;;;;;;;;;;;;;;;;4936275;28;19931;-76
2023/02/23 18:46:25;;;;;;;;;;;;;;;;;;4937770;29;19919;-77
2023/02/23 18:49:12;;;;;;;;;;;;;;;;;;4933607;29;19960;-76
2023/02/23 18:51:59;;;;;;;;;;;;;;;;;;4940251;29;19925;-75
2023/02/23 18:54:45;;;;;;;;;;;;;;;;;;4941826;29;19926;-76
2023/02/23 18:57:31;;;;;;;;;;;;;;;;;;4934572;29;19926;-78
2023/02/23 19:00:18;;;;;;;;;;;;;;;;;;4938067;29;19918;-76
2023/02/23 19:03:05;;;;;;;;;;;;;;;;;;4945662;29;19933;-76
2023/02/23 19:05:54;;;;;;;;;;;;;;;;;;4935155;28;19923;-75
2023/02/23 19:08:41;;;;;;;;;;;;;;;;;;4935483;28;19945;-76
2023/02/23 19:11:27;;;;;;;;;;;;;;;;;;4938206;28;19929;-77
2023/02/23 19:14:17;;;;;;;;;;;;;;;;;;4934813;28;19945;-75
2023/02/23 19:17:03;;;;;;;;;;;;;;;;;;4932301;28;19996;-77
2023/02/23 19:19:51;;;;;;;;;;;;;;;;;;4933019;28;19926;-76
2023/02/23 19:22:37;;;;;;;;;;;;;;;;;;4938470;28;20437;-76
2023/02/23 19:25:23;;;;;;;;;;;;;;;;;;4937815;29;19993;-75
2023/02/23 19:28:11;;;;;;;;;;;;;;;;;;4941688;29;19997;-74
2023/02/23 19:30:58;;;;;;;;;;;;;;;;;;4937222;28;20458;-75
2023/02/23 19:33:44;;;;;;;;;;;;;;;;;;4941531;28;20043;-75
2023/02/23 19:36:33;;;;;;;;;;;;;;;;;;4938869;28;19918;-75
2023/02/23 19:39:19;;;;;;;;;;;;;;;;;;4936661;28;19925;-75
2023/02/23 19:42:06;;;;;;;;;;;;;;;;;;4940429;28;19918;-75
2023/02/23 19:44:52;;;;;;;;;;;;;;;;;;4929194;28;19923;-75
2023/02/23 19:47:39;;;;;;;;;;;;;;;;;;4936079;28;19929;-75
2023/02/23 19:50:25;;;;;;;;;;;;;;;;;;4938681;28;20601;-74
2023/02/23 19:53:12;;;;;;;;;;;;;;;;;;4940604;28;19918;-75
2023/02/23 19:55:59;;;;;;;;;;;;;;;;;;4930156;28;20031;-81
2023/02/23 19:58:47;;;;;;;;;;;;;;;;;;4927155;28;19938;-81
2023/02/23 20:01:33;;;;;;;;;;;;;;;;;;4933782;28;19926;-81
2023/02/23 20:04:22;;;;;;;;;;;;;;;;;;4924279;28;20290;-81
2023/02/23 20:07:10;;;;;;;;;;;;;;;;;;4936964;28;21658;-81
2023/02/23 20:09:56;;;;;;;;;;;;;;;;;;4930361;28;19938;-81
2023/02/23 20:12:43;;;;;;;;;;;;;;;;;;4941045;28;19934;-80
2023/02/23 20:15:29;;;;;;;;;;;;;;;;;;4925961;28;20028;-79
2023/02/23 20:18:16;;;;;;;;;;;;;;;;;;4922601;28;20299;-81